sensor_id;sensor_type;location;lat;lon;timestamp;temperature;humidity
52030;DHT22;38043;53.224;6.580;2023-06-24T00:00:57;17.30;99.90
52030;DHT22;38043;53.224;6.580;2023-06-24T00:03:23;17.30;99.90
52030;DHT22;38043;53.224;6.580;2023-06-24T00:05:48;17.20;99.90
52030;DHT22;38043;53.224;6.580;2023-06-24T00:08:18;17.20;99.90
52030;DHT22;38043;53.224;6.580;2023-06-24T00:10:47;17.20;99.90
52030;DHT22;38043;53.224;6.580;2023-06-24T00:13:13;17.20;99.90
52030;DHT22;38043;53.224;6.580;2023-06-24T00:15:39;17.40;99.90
52030;DHT22;38043;53.224;6.580;2023-06-24T00:18:10;17.20;99.90
52030;DHT22;38043;53.224;6.580;2023-06-24T00:20:36;17.10;99.90
52030;DHT22;38043;53.224;6.580;2023-06-24T00:23:02;17.10;99.90
52030;DHT22;38043;53.224;6.580;2023-06-24T00:25:29;17.10;99.90
52030;DHT22;38043;53.224;6.580;2023-06-24T00:27:54;17.10;99.90
52030;DHT22;38043;53.224;6.580;2023-06-24T00:30:20;17.00;99.90
52030;DHT22;38043;53.224;6.580;2023-06-24T00:32:48;17.00;99.90
52030;DHT22;38043;53.224;6.580;2023-06-24T00:35:14;17.10;99.90
52030;DHT22;38043;53.224;6.580;2023-06-24T00:37:40;17.00;99.90
52030;DHT22;38043;53.224;6.580;2023-06-24T00:40:10;17.00;99.90
52030;DHT22;38043;53.224;6.580;2023-06-24T00:42:36;17.00;99.90
52030;DHT22;38043;53.224;6.580;2023-06-24T00:45:03;17.00;99.90
52030;DHT22;38043;53.224;6.580;2023-06-24T00:47:31;17.00;99.90
52030;DHT22;38043;53.224;6.580;2023-06-24T00:49:56;16.90;99.90
52030;DHT22;38043;53.224;6.580;2023-06-24T00:52:22;17.00;99.90
52030;DHT22;38043;53.224;6.580;2023-06-24T00:54:49;17.00;99.90
52030;DHT22;38043;53.224;6.580;2023-06-24T00:57:14;16.90;99.90
52030;DHT22;38043;53.224;6.580;2023-06-24T00:59:42;16.90;99.90
52030;DHT22;38043;53.224;6.580;2023-06-24T01:02:09;16.90;99.90
52030;DHT22;38043;53.224;6.580;2023-06-24T01:04:36;16.80;99.90
52030;DHT22;38043;53.224;6.580;2023-06-24T01:07:02;16.80;99.90
52030;DHT22;38043;53.224;6.580;2023-06-24T01:09:29;16.80;99.90
52030;DHT22;38043;53.224;6.580;2023-06-24T01:11:54;16.80;99.90
52030;DHT22;38043;53.224;6.580;2023-06-24T01:14:20;16.80;99.90
52030;DHT22;38043;53.224;6.580;2023-06-24T01:16:53;16.80;99.90
52030;DHT22;38043;53.224;6.580;2023-06-24T01:22:04;16.80;99.90
52030;DHT22;38043;53.224;6.580;2023-06-24T01:24:41;16.80;99.90
52030;DHT22;38043;53.224;6.580;2023-06-24T01:27:24;16.70;99.90
52030;DHT22;38043;53.224;6.580;2023-06-24T01:32:43;16.70;99.90
52030;DHT22;38043;53.224;6.580;2023-06-24T01:35:20;16.70;99.90
52030;DHT22;38043;53.224;6.580;2023-06-24T01:37:47;16.70;99.90
52030;DHT22;38043;53.224;6.580;2023-06-24T01:40:27;16.80;99.90
52030;DHT22;38043;53.224;6.580;2023-06-24T01:42:53;16.60;99.90
52030;DHT22;38043;53.224;6.580;2023-06-24T01:45:22;16.60;99.90
52030;DHT22;38043;53.224;6.580;2023-06-24T01:47:48;16.60;99.90
52030;DHT22;38043;53.224;6.580;2023-06-24T01:50:14;16.60;99.90
52030;DHT22;38043;53.224;6.580;2023-06-24T01:52:43;16.60;99.90
52030;DHT22;38043;53.224;6.580;2023-06-24T01:55:09;16.60;99.90
52030;DHT22;38043;53.224;6.580;2023-06-24T01:57:36;16.50;99.90
52030;DHT22;38043;53.224;6.580;2023-06-24T02:00:02;16.50;99.90
52030;DHT22;38043;53.224;6.580;2023-06-24T02:02:31;16.50;99.90
52030;DHT22;38043;53.224;6.580;2023-06-24T02:04:57;16.50;99.90
52030;DHT22;38043;53.224;6.580;2023-06-24T02:07:23;16.50;99.90
52030;DHT22;38043;53.224;6.580;2023-06-24T02:09:50;16.50;99.90
52030;DHT22;38043;53.224;6.580;2023-06-24T02:12:16;16.50;99.90
52030;DHT22;38043;53.224;6.580;2023-06-24T02:14:43;16.50;99.90
52030;DHT22;38043;53.224;6.580;2023-06-24T02:17:08;16.50;99.90
52030;DHT22;38043;53.224;6.580;2023-06-24T02:19:38;16.50;99.90
52030;DHT22;38043;53.224;6.580;2023-06-24T02:22:04;16.50;99.90
52030;DHT22;38043;53.224;6.580;2023-06-24T02:24:35;16.50;99.90
52030;DHT22;38043;53.224;6.580;2023-06-24T02:27:02;16.50;99.90
52030;DHT22;38043;53.224;6.580;2023-06-24T02:29:28;16.50;99.90
52030;DHT22;38043;53.224;6.580;2023-06-24T02:31:54;16.50;99.90
52030;DHT22;38043;53.224;6.580;2023-06-24T02:34:20;16.40;99.90
52030;DHT22;38043;53.224;6.580;2023-06-24T02:36:45;16.50;99.90
52030;DHT22;38043;53.224;6.580;2023-06-24T02:39:11;16.40;99.90
52030;DHT22;38043;53.224;6.580;2023-06-24T02:41:36;16.40;99.90
52030;DHT22;38043;53.224;6.580;2023-06-24T02:44:02;16.40;99.90
52030;DHT22;38043;53.224;6.580;2023-06-24T02:46:28;16.40;99.90
52030;DHT22;38043;53.224;6.580;2023-06-24T02:48:57;16.40;99.90
52030;DHT22;38043;53.224;6.580;2023-06-24T02:51:23;16.40;99.90
52030;DHT22;38043;53.224;6.580;2023-06-24T02:53:49;16.30;99.90
52030;DHT22;38043;53.224;6.580;2023-06-24T02:56:15;16.40;99.90
52030;DHT22;38043;53.224;6.580;2023-06-24T02:58:46;16.30;99.90
52030;DHT22;38043;53.224;6.580;2023-06-24T03:01:12;16.30;99.90
52030;DHT22;38043;53.224;6.580;2023-06-24T03:03:37;16.30;99.90
52030;DHT22;38043;53.224;6.580;2023-06-24T03:06:05;16.30;99.90
52030;DHT22;38043;53.224;6.580;2023-06-24T03:08:30;16.30;99.90
52030;DHT22;38043;53.224;6.580;2023-06-24T03:10:56;16.30;99.90
52030;DHT22;38043;53.224;6.580;2023-06-24T03:13:22;16.30;99.90
52030;DHT22;38043;53.224;6.580;2023-06-24T03:15:48;16.30;99.90
52030;DHT22;38043;53.224;6.580;2023-06-24T03:18:14;16.30;99.90
52030;DHT22;38043;53.224;6.580;2023-06-24T03:20:40;16.30;99.90
52030;DHT22;38043;53.224;6.580;2023-06-24T03:23:09;16.20;99.90
52030;DHT22;38043;53.224;6.580;2023-06-24T03:25:34;16.20;99.90
52030;DHT22;38043;53.224;6.580;2023-06-24T03:28:00;16.20;99.90
52030;DHT22;38043;53.224;6.580;2023-06-24T03:30:26;16.20;99.90
52030;DHT22;38043;53.224;6.580;2023-06-24T03:32:52;16.20;99.90
52030;DHT22;38043;53.224;6.580;2023-06-24T03:35:18;16.20;99.90
52030;DHT22;38043;53.224;6.580;2023-06-24T03:37:43;16.20;99.90
52030;DHT22;38043;53.224;6.580;2023-06-24T03:40:09;16.20;99.90
52030;DHT22;38043;53.224;6.580;2023-06-24T03:42:35;16.20;99.90
52030;DHT22;38043;53.224;6.580;2023-06-24T03:45:02;16.20;99.90
52030;DHT22;38043;53.224;6.580;2023-06-24T03:47:28;16.20;99.90
52030;DHT22;38043;53.224;6.580;2023-06-24T03:49:53;16.20;99.90
52030;DHT22;38043;53.224;6.580;2023-06-24T03:52:19;16.30;99.90
52030;DHT22;38043;53.224;6.580;2023-06-24T03:54:44;16.20;99.90
52030;DHT22;38043;53.224;6.580;2023-06-24T03:57:10;16.20;99.90
52030;DHT22;38043;53.224;6.580;2023-06-24T03:59:35;16.30;99.90
52030;DHT22;38043;53.224;6.580;2023-06-24T04:02:01;16.20;99.90
52030;DHT22;38043;53.224;6.580;2023-06-24T04:04:27;16.20;99.90
52030;DHT22;38043;53.224;6.580;2023-06-24T04:06:52;16.20;99.90
52030;DHT22;38043;53.224;6.580;2023-06-24T04:09:18;16.20;99.90
52030;DHT22;38043;53.224;6.580;2023-06-24T04:11:43;16.20;99.90
52030;DHT22;38043;53.224;6.580;2023-06-24T04:14:09;16.20;99.90
52030;DHT22;38043;53.224;6.580;2023-06-24T04:16:35;16.30;99.90
52030;DHT22;38043;53.224;6.580;2023-06-24T04:19:00;16.30;99.90
52030;DHT22;38043;53.224;6.580;2023-06-24T04:21:26;16.30;99.90
52030;DHT22;38043;53.224;6.580;2023-06-24T04:23:52;16.80;99.90
52030;DHT22;38043;53.224;6.580;2023-06-24T04:26:18;16.40;99.90
52030;DHT22;38043;53.224;6.580;2023-06-24T04:28:44;16.40;99.90
52030;DHT22;38043;53.224;6.580;2023-06-24T04:31:09;16.40;99.90
52030;DHT22;38043;53.224;6.580;2023-06-24T04:33:35;16.40;99.90
52030;DHT22;38043;53.224;6.580;2023-06-24T04:36:00;16.50;99.90
52030;DHT22;38043;53.224;6.580;2023-06-24T04:38:26;16.50;99.90
52030;DHT22;38043;53.224;6.580;2023-06-24T04:40:52;16.60;99.90
52030;DHT22;38043;53.224;6.580;2023-06-24T04:43:18;16.70;99.90
52030;DHT22;38043;53.224;6.580;2023-06-24T04:45:43;16.70;99.90
52030;DHT22;38043;53.224;6.580;2023-06-24T04:48:09;16.80;99.90
52030;DHT22;38043;53.224;6.580;2023-06-24T04:50:34;16.90;99.90
52030;DHT22;38043;53.224;6.580;2023-06-24T04:53:00;16.90;99.90
52030;DHT22;38043;53.224;6.580;2023-06-24T04:55:27;17.00;99.90
52030;DHT22;38043;53.224;6.580;2023-06-24T04:57:55;17.00;99.90
52030;DHT22;38043;53.224;6.580;2023-06-24T05:00:20;17.10;99.90
52030;DHT22;38043;53.224;6.580;2023-06-24T05:02:48;17.10;99.90
52030;DHT22;38043;53.224;6.580;2023-06-24T05:05:14;17.20;99.90
52030;DHT22;38043;53.224;6.580;2023-06-24T05:07:39;17.20;99.90
52030;DHT22;38043;53.224;6.580;2023-06-24T05:10:05;17.20;99.90
52030;DHT22;38043;53.224;6.580;2023-06-24T05:12:31;17.30;99.90
52030;DHT22;38043;53.224;6.580;2023-06-24T05:14:56;17.50;99.90
52030;DHT22;38043;53.224;6.580;2023-06-24T05:17:22;17.70;99.90
52030;DHT22;38043;53.224;6.580;2023-06-24T05:19:47;17.80;99.90
52030;DHT22;38043;53.224;6.580;2023-06-24T05:22:13;17.90;99.90
52030;DHT22;38043;53.224;6.580;2023-06-24T05:24:38;18.00;99.90
52030;DHT22;38043;53.224;6.580;2023-06-24T05:27:07;18.00;99.90
52030;DHT22;38043;53.224;6.580;2023-06-24T05:29:33;18.10;99.90
52030;DHT22;38043;53.224;6.580;2023-06-24T05:31:59;18.20;99.90
52030;DHT22;38043;53.224;6.580;2023-06-24T05:34:25;18.30;99.90
52030;DHT22;38043;53.224;6.580;2023-06-24T05:36:50;18.50;99.90
52030;DHT22;38043;53.224;6.580;2023-06-24T05:39:16;18.60;99.90
52030;DHT22;38043;53.224;6.580;2023-06-24T05:41:42;18.70;99.90
52030;DHT22;38043;53.224;6.580;2023-06-24T05:44:08;18.90;99.90
52030;DHT22;38043;53.224;6.580;2023-06-24T05:46:37;19.00;99.90
52030;DHT22;38043;53.224;6.580;2023-06-24T05:49:02;19.00;99.90
52030;DHT22;38043;53.224;6.580;2023-06-24T05:51:28;19.10;99.90
52030;DHT22;38043;53.224;6.580;2023-06-24T05:53:54;19.30;99.90
52030;DHT22;38043;53.224;6.580;2023-06-24T05:56:20;19.30;99.90
52030;DHT22;38043;53.224;6.580;2023-06-24T05:58:45;19.40;99.90
52030;DHT22;38043;53.224;6.580;2023-06-24T06:01:11;19.60;99.90
52030;DHT22;38043;53.224;6.580;2023-06-24T06:03:37;19.70;99.90
52030;DHT22;38043;53.224;6.580;2023-06-24T06:06:02;19.90;99.90
52030;DHT22;38043;53.224;6.580;2023-06-24T06:08:28;20.00;99.90
52030;DHT22;38043;53.224;6.580;2023-06-24T06:10:53;20.30;99.90
52030;DHT22;38043;53.224;6.580;2023-06-24T06:13:19;20.60;99.90
52030;DHT22;38043;53.224;6.580;2023-06-24T06:15:44;20.90;99.90
52030;DHT22;38043;53.224;6.580;2023-06-24T06:18:10;21.20;99.90
52030;DHT22;38043;53.224;6.580;2023-06-24T06:20:35;21.40;99.90
52030;DHT22;38043;53.224;6.580;2023-06-24T06:23:01;21.50;99.90
52030;DHT22;38043;53.224;6.580;2023-06-24T06:25:27;21.50;99.90
52030;DHT22;38043;53.224;6.580;2023-06-24T06:27:52;21.40;99.90
52030;DHT22;38043;53.224;6.580;2023-06-24T06:30:18;21.30;99.90
52030;DHT22;38043;53.224;6.580;2023-06-24T06:32:46;21.20;99.90
52030;DHT22;38043;53.224;6.580;2023-06-24T06:35:11;21.10;99.90
52030;DHT22;38043;53.224;6.580;2023-06-24T06:37:37;21.10;99.90
52030;DHT22;38043;53.224;6.580;2023-06-24T06:40:03;21.10;99.90
52030;DHT22;38043;53.224;6.580;2023-06-24T06:42:29;21.10;99.90
52030;DHT22;38043;53.224;6.580;2023-06-24T06:44:54;21.10;99.90
52030;DHT22;38043;53.224;6.580;2023-06-24T06:47:20;21.10;99.90
52030;DHT22;38043;53.224;6.580;2023-06-24T06:49:45;21.20;99.90
52030;DHT22;38043;53.224;6.580;2023-06-24T06:52:11;21.20;99.90
52030;DHT22;38043;53.224;6.580;2023-06-24T06:54:37;21.20;99.90
52030;DHT22;38043;53.224;6.580;2023-06-24T06:57:02;21.30;99.90
52030;DHT22;38043;53.224;6.580;2023-06-24T06:59:29;21.40;99.90
52030;DHT22;38043;53.224;6.580;2023-06-24T07:02:01;21.50;99.90
52030;DHT22;38043;53.224;6.580;2023-06-24T07:04:26;21.50;99.90
52030;DHT22;38043;53.224;6.580;2023-06-24T07:06:52;21.50;99.90
52030;DHT22;38043;53.224;6.580;2023-06-24T07:09:17;21.60;99.90
52030;DHT22;38043;53.224;6.580;2023-06-24T07:11:43;21.60;99.90
52030;DHT22;38043;53.224;6.580;2023-06-24T07:14:09;21.70;99.90
52030;DHT22;38043;53.224;6.580;2023-06-24T07:16:35;21.70;99.90
52030;DHT22;38043;53.224;6.580;2023-06-24T07:19:01;21.80;99.90
52030;DHT22;38043;53.224;6.580;2023-06-24T07:21:26;21.80;99.90
52030;DHT22;38043;53.224;6.580;2023-06-24T07:23:52;21.90;99.90
52030;DHT22;38043;53.224;6.580;2023-06-24T07:26:18;21.90;99.90
52030;DHT22;38043;53.224;6.580;2023-06-24T07:28:43;21.90;99.90
52030;DHT22;38043;53.224;6.580;2023-06-24T07:31:12;22.00;99.90
52030;DHT22;38043;53.224;6.580;2023-06-24T07:33:37;22.00;99.90
52030;DHT22;38043;53.224;6.580;2023-06-24T07:36:03;22.10;99.90
52030;DHT22;38043;53.224;6.580;2023-06-24T07:38:29;22.10;99.90
52030;DHT22;38043;53.224;6.580;2023-06-24T07:40:55;22.30;99.90
52030;DHT22;38043;53.224;6.580;2023-06-24T07:43:21;22.40;99.90
52030;DHT22;38043;53.224;6.580;2023-06-24T07:45:46;22.60;99.90
52030;DHT22;38043;53.224;6.580;2023-06-24T07:48:12;22.80;99.90
52030;DHT22;38043;53.224;6.580;2023-06-24T07:50:38;23.00;99.90
52030;DHT22;38043;53.224;6.580;2023-06-24T07:53:06;23.10;99.90
52030;DHT22;38043;53.224;6.580;2023-06-24T07:55:32;23.30;99.90
52030;DHT22;38043;53.224;6.580;2023-06-24T07:57:58;23.50;99.90
52030;DHT22;38043;53.224;6.580;2023-06-24T08:00:28;23.70;99.90
52030;DHT22;38043;53.224;6.580;2023-06-24T08:02:53;23.80;99.90
52030;DHT22;38043;53.224;6.580;2023-06-24T08:05:20;23.90;99.90
52030;DHT22;38043;53.224;6.580;2023-06-24T08:07:46;24.00;99.90
52030;DHT22;38043;53.224;6.580;2023-06-24T08:10:12;24.10;99.90
52030;DHT22;38043;53.224;6.580;2023-06-24T08:12:37;24.20;99.90
52030;DHT22;38043;53.224;6.580;2023-06-24T08:15:05;24.20;99.90
52030;DHT22;38043;53.224;6.580;2023-06-24T08:17:31;24.30;99.90
52030;DHT22;38043;53.224;6.580;2023-06-24T08:19:57;24.30;99.90
52030;DHT22;38043;53.224;6.580;2023-06-24T08:22:22;24.30;99.90
52030;DHT22;38043;53.224;6.580;2023-06-24T08:24:48;24.30;99.90
52030;DHT22;38043;53.224;6.580;2023-06-24T08:27:16;24.40;99.90
52030;DHT22;38043;53.224;6.580;2023-06-24T08:29:42;24.40;99.90
52030;DHT22;38043;53.224;6.580;2023-06-24T08:32:11;24.50;99.90
52030;DHT22;38043;53.224;6.580;2023-06-24T08:34:36;24.40;99.90
52030;DHT22;38043;53.224;6.580;2023-06-24T08:37:02;24.40;99.40
52030;DHT22;38043;53.224;6.580;2023-06-24T08:39:28;24.50;99.90
52030;DHT22;38043;53.224;6.580;2023-06-24T08:41:53;24.60;99.90
52030;DHT22;38043;53.224;6.580;2023-06-24T08:44:19;24.60;99.40
52030;DHT22;38043;53.224;6.580;2023-06-24T08:46:45;24.70;99.20
52030;DHT22;38043;53.224;6.580;2023-06-24T08:52:00;24.80;99.30
52030;DHT22;38043;53.224;6.580;2023-06-24T08:54:26;24.90;99.00
52030;DHT22;38043;53.224;6.580;2023-06-24T08:56:52;25.00;99.10
52030;DHT22;38043;53.224;6.580;2023-06-24T08:59:18;25.10;98.30
52030;DHT22;38043;53.224;6.580;2023-06-24T09:01:48;25.20;98.70
52030;DHT22;38043;53.224;6.580;2023-06-24T09:04:14;25.30;98.50
52030;DHT22;38043;53.224;6.580;2023-06-24T09:06:40;25.40;98.60
52030;DHT22;38043;53.224;6.580;2023-06-24T09:09:16;25.70;98.70
52030;DHT22;38043;53.224;6.580;2023-06-24T09:11:42;26.00;98.60
52030;DHT22;38043;53.224;6.580;2023-06-24T09:14:15;26.20;97.60
52030;DHT22;38043;53.224;6.580;2023-06-24T09:16:41;26.30;97.90
52030;DHT22;38043;53.224;6.580;2023-06-24T09:19:07;26.50;97.50
52030;DHT22;38043;53.224;6.580;2023-06-24T09:21:33;26.40;96.10
52030;DHT22;38043;53.224;6.580;2023-06-24T09:24:00;26.40;96.30
52030;DHT22;38043;53.224;6.580;2023-06-24T09:26:27;26.30;96.20
52030;DHT22;38043;53.224;6.580;2023-06-24T09:28:56;26.30;96.10
52030;DHT22;38043;53.224;6.580;2023-06-24T09:31:23;26.20;95.70
52030;DHT22;38043;53.224;6.580;2023-06-24T09:33:49;26.20;96.30
52030;DHT22;38043;53.224;6.580;2023-06-24T09:36:14;26.20;96.50
52030;DHT22;38043;53.224;6.580;2023-06-24T09:38:43;26.20;95.80
52030;DHT22;38043;53.224;6.580;2023-06-24T09:41:13;26.20;95.40
52030;DHT22;38043;53.224;6.580;2023-06-24T09:43:41;26.10;95.50
52030;DHT22;38043;53.224;6.580;2023-06-24T09:46:07;26.20;96.20
52030;DHT22;38043;53.224;6.580;2023-06-24T09:48:33;26.40;95.70
52030;DHT22;38043;53.224;6.580;2023-06-24T09:51:00;26.50;95.10
52030;DHT22;38043;53.224;6.580;2023-06-24T09:53:34;26.70;95.30
52030;DHT22;38043;53.224;6.580;2023-06-24T09:56:00;26.80;95.40
52030;DHT22;38043;53.224;6.580;2023-06-24T09:58:32;27.20;94.50
52030;DHT22;38043;53.224;6.580;2023-06-24T10:01:01;27.10;94.50
52030;DHT22;38043;53.224;6.580;2023-06-24T10:03:27;27.00;94.60
52030;DHT22;38043;53.224;6.580;2023-06-24T10:05:53;27.30;93.90
52030;DHT22;38043;53.224;6.580;2023-06-24T10:08:18;27.40;94.30
52030;DHT22;38043;53.224;6.580;2023-06-24T10:10:48;27.50;93.80
52030;DHT22;38043;53.224;6.580;2023-06-24T10:13:14;27.40;93.40
52030;DHT22;38043;53.224;6.580;2023-06-24T10:15:40;27.50;94.50
52030;DHT22;38043;53.224;6.580;2023-06-24T10:21:07;27.70;91.90
52030;DHT22;38043;53.224;6.580;2023-06-24T10:23:40;27.60;93.10
52030;DHT22;38043;53.224;6.580;2023-06-24T10:26:10;27.60;93.10
52030;DHT22;38043;53.224;6.580;2023-06-24T10:31:29;28.00;92.50
52030;DHT22;38043;53.224;6.580;2023-06-24T10:36:52;27.90;93.00
52030;DHT22;38043;53.224;6.580;2023-06-24T10:44:49;28.60;90.70
52030;DHT22;38043;53.224;6.580;2023-06-24T10:47:16;28.80;92.10
52030;DHT22;38043;53.224;6.580;2023-06-24T10:49:41;29.10;92.00
52030;DHT22;38043;53.224;6.580;2023-06-24T10:52:10;29.40;90.40
52030;DHT22;38043;53.224;6.580;2023-06-24T10:54:36;29.50;90.30
52030;DHT22;38043;53.224;6.580;2023-06-24T10:57:03;29.70;88.90
52030;DHT22;38043;53.224;6.580;2023-06-24T10:59:33;29.70;89.10
52030;DHT22;38043;53.224;6.580;2023-06-24T11:01:59;29.90;89.40
52030;DHT22;38043;53.224;6.580;2023-06-24T11:04:27;29.80;88.60
52030;DHT22;38043;53.224;6.580;2023-06-24T11:07:03;29.60;90.40
52030;DHT22;38043;53.224;6.580;2023-06-24T11:09:31;29.60;89.20
52030;DHT22;38043;53.224;6.580;2023-06-24T11:11:57;29.60;87.70
52030;DHT22;38043;53.224;6.580;2023-06-24T11:14:23;29.50;87.00
52030;DHT22;38043;53.224;6.580;2023-06-24T11:16:49;29.60;88.50
52030;DHT22;38043;53.224;6.580;2023-06-24T11:19:14;29.80;88.40
52030;DHT22;38043;53.224;6.580;2023-06-24T11:21:40;30.00;87.90
52030;DHT22;38043;53.224;6.580;2023-06-24T11:24:09;30.20;87.10
52030;DHT22;38043;53.224;6.580;2023-06-24T11:26:36;30.30;89.20
52030;DHT22;38043;53.224;6.580;2023-06-24T11:29:09;30.50;86.50
52030;DHT22;38043;53.224;6.580;2023-06-24T11:31:34;30.50;86.50
52030;DHT22;38043;53.224;6.580;2023-06-24T11:34:01;30.70;86.50
52030;DHT22;38043;53.224;6.580;2023-06-24T11:36:26;30.50;84.60
52030;DHT22;38043;53.224;6.580;2023-06-24T11:38:54;30.20;84.80
52030;DHT22;38043;53.224;6.580;2023-06-24T11:41:20;29.80;85.60
52030;DHT22;38043;53.224;6.580;2023-06-24T11:43:46;29.50;85.60
52030;DHT22;38043;53.224;6.580;2023-06-24T11:46:23;29.40;87.80
52030;DHT22;38043;53.224;6.580;2023-06-24T11:48:49;29.60;86.00
52030;DHT22;38043;53.224;6.580;2023-06-24T11:51:15;29.70;85.70
52030;DHT22;38043;53.224;6.580;2023-06-24T11:53:41;29.90;85.60
52030;DHT22;38043;53.224;6.580;2023-06-24T11:56:08;30.00;86.00
52030;DHT22;38043;53.224;6.580;2023-06-24T11:58:34;30.20;85.10
52030;DHT22;38043;53.224;6.580;2023-06-24T12:01:01;30.20;86.20
52030;DHT22;38043;53.224;6.580;2023-06-24T12:03:27;30.20;83.70
52030;DHT22;38043;53.224;6.580;2023-06-24T12:05:53;30.20;83.40
52030;DHT22;38043;53.224;6.580;2023-06-24T12:08:19;30.30;85.50
52030;DHT22;38043;53.224;6.580;2023-06-24T12:10:48;30.40;84.00
52030;DHT22;38043;53.224;6.580;2023-06-24T12:13:13;30.70;83.50
52030;DHT22;38043;53.224;6.580;2023-06-24T12:15:39;30.70;81.10
52030;DHT22;38043;53.224;6.580;2023-06-24T12:18:05;30.80;82.00
52030;DHT22;38043;53.224;6.580;2023-06-24T12:20:31;30.70;81.40
52030;DHT22;38043;53.224;6.580;2023-06-24T12:22:57;30.80;79.90
52030;DHT22;38043;53.224;6.580;2023-06-24T12:25:23;30.80;80.90
52030;DHT22;38043;53.224;6.580;2023-06-24T12:27:49;30.80;79.70
52030;DHT22;38043;53.224;6.580;2023-06-24T12:30:15;30.80;81.20
52030;DHT22;38043;53.224;6.580;2023-06-24T12:32:42;30.70;81.30
52030;DHT22;38043;53.224;6.580;2023-06-24T12:35:08;30.50;80.70
52030;DHT22;38043;53.224;6.580;2023-06-24T12:37:34;30.40;81.40
52030;DHT22;38043;53.224;6.580;2023-06-24T12:40:00;30.40;80.10
52030;DHT22;38043;53.224;6.580;2023-06-24T12:42:26;30.10;80.70
52030;DHT22;38043;53.224;6.580;2023-06-24T12:44:52;30.00;80.30
52030;DHT22;38043;53.224;6.580;2023-06-24T12:47:18;29.60;81.10
52030;DHT22;38043;53.224;6.580;2023-06-24T12:49:44;29.50;82.80
52030;DHT22;38043;53.224;6.580;2023-06-24T12:52:13;29.70;82.50
52030;DHT22;38043;53.224;6.580;2023-06-24T12:54:39;30.00;80.00
52030;DHT22;38043;53.224;6.580;2023-06-24T12:57:05;29.80;80.20
52030;DHT22;38043;53.224;6.580;2023-06-24T12:59:30;29.70;81.10
52030;DHT22;38043;53.224;6.580;2023-06-24T13:01:56;29.40;81.30
52030;DHT22;38043;53.224;6.580;2023-06-24T13:04:22;29.20;82.00
52030;DHT22;38043;53.224;6.580;2023-06-24T13:06:50;29.00;83.80
52030;DHT22;38043;53.224;6.580;2023-06-24T13:09:16;29.20;84.30
52030;DHT22;38043;53.224;6.580;2023-06-24T13:11:42;29.60;83.00
52030;DHT22;38043;53.224;6.580;2023-06-24T13:14:08;29.90;81.60
52030;DHT22;38043;53.224;6.580;2023-06-24T13:16:35;30.10;82.20
52030;DHT22;38043;53.224;6.580;2023-06-24T13:19:01;30.30;81.90
52030;DHT22;38043;53.224;6.580;2023-06-24T13:21:26;30.50;80.90
52030;DHT22;38043;53.224;6.580;2023-06-24T13:23:52;30.60;80.40
52030;DHT22;38043;53.224;6.580;2023-06-24T13:26:18;30.50;81.40
52030;DHT22;38043;53.224;6.580;2023-06-24T13:28:43;30.50;82.00
52030;DHT22;38043;53.224;6.580;2023-06-24T13:31:09;30.40;81.80
52030;DHT22;38043;53.224;6.580;2023-06-24T13:33:35;30.40;81.70
52030;DHT22;38043;53.224;6.580;2023-06-24T13:36:00;30.50;80.90
52030;DHT22;38043;53.224;6.580;2023-06-24T13:38:27;30.50;81.60
52030;DHT22;38043;53.224;6.580;2023-06-24T13:40:53;30.40;81.90
52030;DHT22;38043;53.224;6.580;2023-06-24T13:43:19;30.30;81.40
52030;DHT22;38043;53.224;6.580;2023-06-24T13:45:44;30.10;81.50
52030;DHT22;38043;53.224;6.580;2023-06-24T13:48:10;29.80;80.50
52030;DHT22;38043;53.224;6.580;2023-06-24T13:50:35;29.50;81.90
52030;DHT22;38043;53.224;6.580;2023-06-24T13:53:01;29.20;83.00
52030;DHT22;38043;53.224;6.580;2023-06-24T13:55:26;29.00;84.30
52030;DHT22;38043;53.224;6.580;2023-06-24T13:57:52;28.90;83.80
52030;DHT22;38043;53.224;6.580;2023-06-24T14:00:18;29.00;84.70
52030;DHT22;38043;53.224;6.580;2023-06-24T14:02:44;29.30;83.70
52030;DHT22;38043;53.224;6.580;2023-06-24T14:05:09;29.30;82.70
52030;DHT22;38043;53.224;6.580;2023-06-24T14:07:35;29.00;82.90
52030;DHT22;38043;53.224;6.580;2023-06-24T14:10:01;28.70;84.40
52030;DHT22;38043;53.224;6.580;2023-06-24T14:12:26;28.60;84.20
52030;DHT22;38043;53.224;6.580;2023-06-24T14:14:52;28.70;88.50
52030;DHT22;38043;53.224;6.580;2023-06-24T14:17:20;29.10;86.70
52030;DHT22;38043;53.224;6.580;2023-06-24T14:19:46;29.40;83.40
52030;DHT22;38043;53.224;6.580;2023-06-24T14:22:12;29.30;84.30
52030;DHT22;38043;53.224;6.580;2023-06-24T14:24:37;29.10;83.90
52030;DHT22;38043;53.224;6.580;2023-06-24T14:27:04;29.00;84.00
52030;DHT22;38043;53.224;6.580;2023-06-24T14:29:30;28.80;84.50
52030;DHT22;38043;53.224;6.580;2023-06-24T14:31:55;28.70;84.80
52030;DHT22;38043;53.224;6.580;2023-06-24T14:34:21;28.60;84.20
52030;DHT22;38043;53.224;6.580;2023-06-24T14:36:47;28.60;85.10
52030;DHT22;38043;53.224;6.580;2023-06-24T14:39:14;28.50;85.70
52030;DHT22;38043;53.224;6.580;2023-06-24T14:41:40;28.40;87.80
52030;DHT22;38043;53.224;6.580;2023-06-24T14:44:05;28.20;88.40
52030;DHT22;38043;53.224;6.580;2023-06-24T14:46:31;28.00;89.10
52030;DHT22;38043;53.224;6.580;2023-06-24T14:48:56;27.90;89.00
52030;DHT22;38043;53.224;6.580;2023-06-24T14:51:23;27.90;89.10
52030;DHT22;38043;53.224;6.580;2023-06-24T14:53:49;28.10;89.60
52030;DHT22;38043;53.224;6.580;2023-06-24T14:56:14;28.60;89.80
52030;DHT22;38043;53.224;6.580;2023-06-24T14:58:40;29.20;89.00
52030;DHT22;38043;53.224;6.580;2023-06-24T15:01:05;29.50;86.70
52030;DHT22;38043;53.224;6.580;2023-06-24T15:03:31;29.70;86.70
52030;DHT22;38043;53.224;6.580;2023-06-24T15:05:57;29.90;84.60
52030;DHT22;38043;53.224;6.580;2023-06-24T15:08:22;29.80;84.50
52030;DHT22;38043;53.224;6.580;2023-06-24T15:10:50;29.80;84.50
52030;DHT22;38043;53.224;6.580;2023-06-24T15:13:16;29.80;84.00
52030;DHT22;38043;53.224;6.580;2023-06-24T15:15:41;29.70;83.90
52030;DHT22;38043;53.224;6.580;2023-06-24T15:18:07;29.40;84.40
52030;DHT22;38043;53.224;6.580;2023-06-24T15:20:33;29.20;85.20
52030;DHT22;38043;53.224;6.580;2023-06-24T15:22:59;29.20;84.60
52030;DHT22;38043;53.224;6.580;2023-06-24T15:25:24;29.20;85.50
52030;DHT22;38043;53.224;6.580;2023-06-24T15:27:50;29.10;85.70
52030;DHT22;38043;53.224;6.580;2023-06-24T15:30:16;28.90;85.90
52030;DHT22;38043;53.224;6.580;2023-06-24T15:32:41;28.90;85.80
52030;DHT22;38043;53.224;6.580;2023-06-24T15:35:07;28.80;86.00
52030;DHT22;38043;53.224;6.580;2023-06-24T15:37:33;28.70;85.20
52030;DHT22;38043;53.224;6.580;2023-06-24T15:39:59;28.70;85.30
52030;DHT22;38043;53.224;6.580;2023-06-24T15:42:24;28.40;85.90
52030;DHT22;38043;53.224;6.580;2023-06-24T15:44:50;28.10;86.40
52030;DHT22;38043;53.224;6.580;2023-06-24T15:47:16;27.80;87.00